createdAt,value
2019-02-06T00:00:29.370Z,79.00
2019-02-06T00:01:29.368Z,76.30
2019-02-06T00:02:29.348Z,73.20
2019-02-06T00:03:29.339Z,78.10
2019-02-06T00:04:29.345Z,74.10
2019-02-06T00:05:29.318Z,74.30
2019-02-06T00:06:29.333Z,75.20
2019-02-06T00:07:29.289Z,71.90
2019-02-06T00:08:29.287Z,69.60
2019-02-06T00:09:29.270Z,72.70
2019-02-06T00:10:29.251Z,67.50
2019-02-06T00:11:29.273Z,66.90
2019-02-06T00:12:29.230Z,73.40
2019-02-06T00:13:29.237Z,70.90
2019-02-06T00:14:29.223Z,67.90
2019-02-06T00:15:29.220Z,68.90
2019-02-06T00:16:29.218Z,69.30
2019-02-06T00:17:29.205Z,67.30
2019-02-06T00:18:29.187Z,72.10
2019-02-06T00:19:29.193Z,70.80
2019-02-06T00:20:29.149Z,68.40
2019-02-06T00:21:29.149Z,65.50
2019-02-06T00:22:29.125Z,67.20
2019-02-06T00:23:29.135Z,71.40
2019-02-06T00:24:29.137Z,66.70
2019-02-06T00:25:29.097Z,72.20
2019-02-06T00:26:29.089Z,68.70
2019-02-06T00:27:29.075Z,68.50
2019-02-06T00:28:29.087Z,64.80
2019-02-06T00:29:29.055Z,67.20
2019-02-06T00:30:29.042Z,65.30
2019-02-06T00:31:29.030Z,66.90
2019-02-06T00:32:29.067Z,66.80
2019-02-06T00:33:29.015Z,64.50
2019-02-06T00:34:29.026Z,66.10
2019-02-06T00:35:29.005Z,63.80
2019-02-06T00:36:28.975Z,64.80
2019-02-06T00:37:28.978Z,64.60
2019-02-06T00:38:28.947Z,64.50
2019-02-06T00:39:29.059Z,66.70
2019-02-06T00:40:28.953Z,64.10
2019-02-06T00:41:28.950Z,65.30
2019-02-06T00:42:28.906Z,63.60
2019-02-06T00:43:28.897Z,66.00
2019-02-06T00:44:28.882Z,64.30
2019-02-06T00:45:28.900Z,65.80
2019-02-06T00:46:28.897Z,62.30
2019-02-06T00:47:28.867Z,64.10
2019-02-06T00:48:28.937Z,64.70
2019-02-06T00:49:28.840Z,66.00
2019-02-06T00:50:28.847Z,64.20
2019-02-06T00:51:28.817Z,62.30
2019-02-06T00:52:28.814Z,62.70
2019-02-06T00:53:28.783Z,61.60
2019-02-06T00:54:28.777Z,58.80
2019-02-06T00:55:28.794Z,61.60
2019-02-06T00:56:28.784Z,59.70
2019-02-06T00:57:28.750Z,63.20
2019-02-06T00:58:28.780Z,61.30
2019-02-06T00:59:28.720Z,60.20
2019-02-06T01:00:28.744Z,65.40
2019-02-06T01:01:28.705Z,61.70
2019-02-06T01:02:28.711Z,61.30
2019-02-06T01:03:28.690Z,62.20
2019-02-06T01:04:28.667Z,60.00
2019-02-06T01:05:37.965Z,60.30
2019-02-06T01:06:29.650Z,60.80
2019-02-06T01:07:28.639Z,63.00
2019-02-06T01:08:28.642Z,62.70
2019-02-06T01:09:28.636Z,59.50
2019-02-06T01:10:28.632Z,58.60
2019-02-06T01:11:28.594Z,59.00
2019-02-06T01:12:28.594Z,62.90
2019-02-06T01:13:28.605Z,60.20
2019-02-06T01:14:28.558Z,60.90
2019-02-06T01:15:28.563Z,58.20
2019-02-06T01:16:28.533Z,56.50
2019-02-06T01:17:28.523Z,62.70
2019-02-06T01:18:28.531Z,56.50
2019-02-06T01:19:28.523Z,56.40
2019-02-06T01:20:28.499Z,54.70
2019-02-06T01:21:28.503Z,56.20
2019-02-06T01:22:28.471Z,57.20
2019-02-06T01:23:28.456Z,55.90
2019-02-06T01:24:28.463Z,54.60
2019-02-06T01:25:28.441Z,55.80
2019-02-06T01:26:28.462Z,56.10
2019-02-06T01:27:28.465Z,54.70
2019-02-06T01:28:28.403Z,56.50
2019-02-06T01:29:28.419Z,54.00
2019-02-06T01:30:28.396Z,54.90
2019-02-06T01:31:28.374Z,55.00
2019-02-06T01:32:28.368Z,52.80
2019-02-06T01:33:28.350Z,54.10
2019-02-06T01:34:28.338Z,50.60
2019-02-06T01:35:28.361Z,53.10
2019-02-06T01:36:28.316Z,52.10
2019-02-06T01:37:28.307Z,55.50
2019-02-06T01:38:28.302Z,52.10
2019-02-06T01:39:28.285Z,53.80
2019-02-06T01:40:28.279Z,50.70
2019-02-06T01:41:28.286Z,52.40
2019-02-06T01:42:28.257Z,55.00
2019-02-06T01:43:28.243Z,50.90
2019-02-06T01:44:28.242Z,54.80
2019-02-06T01:45:28.221Z,49.40
2019-02-06T01:46:28.240Z,51.10
2019-02-06T01:47:28.218Z,49.90
2019-02-06T01:48:28.190Z,52.00
2019-02-06T01:49:28.172Z,52.00
2019-02-06T01:50:28.173Z,48.30
2019-02-06T01:51:28.158Z,46.70
2019-02-06T01:52:28.172Z,51.90
2019-02-06T01:53:28.140Z,50.90
2019-02-06T01:54:28.117Z,53.50
2019-02-06T01:55:28.120Z,50.20
2019-02-06T01:56:28.100Z,49.40
2019-02-06T01:57:28.095Z,51.00
2019-02-06T01:58:28.100Z,52.30
2019-02-06T01:59:28.097Z,49.80
2019-02-06T02:00:28.059Z,51.20
2019-02-06T02:01:28.137Z,51.00
2019-02-06T02:02:28.040Z,47.90
2019-02-06T02:03:28.061Z,55.00
2019-02-06T02:04:28.012Z,49.80
2019-02-06T02:05:28.007Z,53.00
2019-02-06T02:06:27.990Z,53.00
2019-02-06T02:07:27.978Z,55.20
2019-02-06T02:08:27.983Z,58.70
2019-02-06T02:09:28.061Z,53.60
2019-02-06T02:10:27.978Z,56.90
2019-02-06T02:11:27.938Z,55.30
2019-02-06T02:12:27.927Z,58.30
2019-02-06T02:13:27.929Z,56.60
2019-02-06T02:14:27.944Z,56.10
2019-02-06T02:15:27.923Z,57.30
2019-02-06T02:16:27.883Z,60.20
2019-02-06T02:17:27.868Z,59.30
2019-02-06T02:18:27.864Z,60.80
2019-02-06T02:19:27.847Z,62.30
2019-02-06T02:20:27.842Z,64.90
2019-02-06T02:21:27.846Z,64.40
2019-02-06T02:22:27.856Z,67.50
2019-02-06T02:23:27.816Z,69.40
2019-02-06T02:24:27.800Z,69.30
2019-02-06T02:25:27.790Z,67.40
2019-02-06T02:26:27.813Z,68.40
2019-02-06T02:27:27.763Z,76.40
2019-02-06T02:28:27.765Z,79.20
2019-02-06T02:29:27.744Z,76.00
2019-02-06T02:30:27.737Z,81.60
2019-02-06T02:31:27.726Z,79.40
2019-02-06T02:32:27.767Z,77.70
2019-02-06T02:33:27.718Z,82.40
2019-02-06T02:34:27.691Z,84.80
2019-02-06T02:35:27.681Z,82.30
2019-02-06T02:36:27.663Z,86.40
2019-02-06T02:37:27.664Z,81.30
2019-02-06T02:38:27.668Z,78.40
2019-02-06T02:39:27.818Z,81.40
2019-02-06T02:40:27.620Z,76.80
2019-02-06T02:41:27.623Z,77.40
2019-02-06T02:42:27.620Z,81.40
2019-02-06T02:43:27.630Z,79.70
2019-02-06T02:44:27.588Z,77.40
2019-02-06T02:45:27.573Z,80.30
2019-02-06T02:46:27.570Z,80.60
2019-02-06T02:47:27.551Z,80.60
2019-02-06T02:48:27.566Z,78.10
2019-02-06T02:49:27.731Z,76.70
2019-02-06T02:50:27.524Z,80.80
2019-02-06T02:51:27.521Z,85.90
2019-02-06T02:52:27.494Z,82.00
2019-02-06T02:53:27.510Z,89.20
2019-02-06T02:54:27.479Z,85.00
2019-02-06T02:55:27.502Z,85.40
2019-02-06T02:56:27.462Z,84.40
2019-02-06T02:57:27.460Z,88.50
2019-02-06T02:58:27.436Z,88.50
2019-02-06T02:59:27.433Z,87.90
2019-02-06T03:00:27.414Z,87.40
2019-02-06T03:01:27.425Z,88.80
2019-02-06T03:02:27.408Z,86.50
2019-02-06T03:03:27.387Z,90.60
2019-02-06T03:04:27.383Z,82.50
2019-02-06T03:05:27.366Z,95.30
2019-02-06T03:06:28.657Z,92.00
2019-02-06T03:07:27.353Z,88.60
2019-02-06T03:08:27.344Z,91.10
2019-02-06T03:09:27.321Z,88.60
2019-02-06T03:10:27.300Z,90.30
2019-02-06T03:11:27.309Z,86.50
2019-02-06T03:12:27.313Z,86.20
2019-02-06T03:13:27.274Z,87.10
2019-02-06T03:14:27.262Z,90.60
2019-02-06T03:15:27.250Z,91.10
2019-02-06T03:16:27.244Z,89.10
2019-02-06T03:17:27.258Z,88.40
2019-02-06T03:18:27.222Z,88.80
2019-02-06T03:19:27.218Z,91.10
2019-02-06T03:20:27.234Z,90.00
2019-02-06T03:21:27.213Z,86.70
2019-02-06T03:22:27.191Z,85.00
2019-02-06T03:23:27.210Z,87.00
2019-02-06T03:24:27.160Z,93.10
2019-02-06T03:25:27.141Z,87.90
2019-02-06T03:26:27.166Z,87.60
2019-02-06T03:27:27.119Z,90.50
2019-02-06T03:28:27.135Z,89.20
2019-02-06T03:29:27.091Z,91.80
2019-02-06T03:30:27.098Z,91.40
2019-02-06T03:31:27.105Z,90.00
2019-02-06T03:32:27.061Z,91.50
2019-02-06T03:33:27.068Z,91.10
2019-02-06T03:34:27.053Z,92.70
2019-02-06T03:35:27.033Z,92.20
2019-02-06T03:36:39.533Z,89.90
2019-02-06T03:37:28.046Z,87.90
2019-02-06T03:38:27.048Z,89.70
2019-02-06T03:39:26.990Z,92.50
2019-02-06T03:40:26.993Z,86.70
2019-02-06T03:41:26.969Z,88.60
2019-02-06T03:42:26.965Z,89.90
2019-02-06T03:43:26.984Z,92.00
2019-02-06T03:44:26.978Z,87.70
2019-02-06T03:45:26.935Z,92.30
2019-02-06T03:46:26.918Z,89.30
2019-02-06T03:47:26.908Z,91.50
2019-02-06T03:48:26.926Z,92.40
2019-02-06T03:49:26.889Z,90.40
2019-02-06T03:50:26.880Z,90.40
2019-02-06T03:51:26.883Z,88.60
2019-02-06T03:52:26.839Z,87.00
2019-02-06T03:53:26.846Z,89.40
2019-02-06T03:54:26.895Z,91.30
2019-02-06T03:55:26.811Z,91.50
2019-02-06T03:56:26.808Z,90.20
2019-02-06T03:57:26.788Z,82.60
2019-02-06T03:58:26.779Z,84.60
2019-02-06T03:59:26.770Z,87.60
2019-02-06T04:00:26.791Z,92.00
2019-02-06T04:01:26.751Z,89.70
2019-02-06T04:02:26.746Z,90.60
2019-02-06T04:03:26.728Z,92.10
2019-02-06T04:04:26.719Z,92.10
2019-02-06T04:05:26.719Z,86.40
2019-02-06T04:06:26.729Z,87.10
2019-02-06T04:07:26.691Z,86.30
2019-02-06T04:08:26.684Z,93.00
2019-02-06T04:09:26.687Z,93.10
2019-02-06T04:10:26.653Z,91.30
2019-02-06T04:11:26.646Z,88.70
2019-02-06T04:12:26.674Z,90.90
2019-02-06T04:13:26.626Z,88.80
2019-02-06T04:14:26.635Z,90.90
2019-02-06T04:15:26.604Z,93.30
2019-02-06T04:16:26.602Z,89.00
2019-02-06T04:17:26.574Z,90.30
2019-02-06T04:18:26.603Z,89.40
2019-02-06T04:19:26.586Z,90.10
2019-02-06T04:20:26.539Z,87.60
2019-02-06T04:21:26.537Z,88.20
2019-02-06T04:22:26.525Z,89.70
2019-02-06T04:23:26.503Z,88.20
2019-02-06T04:24:26.513Z,86.70
2019-02-06T04:25:26.490Z,84.70
2019-02-06T04:26:26.487Z,82.90
2019-02-06T04:27:26.473Z,85.90
2019-02-06T04:28:26.470Z,87.30
2019-02-06T04:29:26.484Z,85.90
2019-02-06T04:30:26.430Z,91.30
2019-02-06T04:31:26.421Z,83.40
2019-02-06T04:32:26.424Z,84.50
2019-02-06T04:33:26.401Z,86.30
2019-02-06T04:34:26.390Z,87.30
2019-02-06T04:35:26.459Z,82.30
2019-02-06T04:36:26.376Z,81.80
2019-02-06T04:37:26.380Z,83.50
2019-02-06T04:38:26.346Z,87.60
2019-02-06T04:39:26.353Z,87.60
2019-02-06T04:40:26.328Z,83.20
2019-02-06T04:41:26.323Z,83.10
2019-02-06T04:42:26.310Z,80.50
2019-02-06T04:43:26.318Z,82.20
2019-02-06T04:44:26.296Z,80.70
2019-02-06T04:45:26.272Z,82.30
2019-02-06T04:46:26.265Z,79.70
2019-02-06T04:47:26.245Z,76.80
2019-02-06T04:48:26.254Z,80.00
2019-02-06T04:49:26.254Z,79.80
2019-02-06T04:50:26.222Z,78.80
2019-02-06T04:51:26.207Z,77.20
2019-02-06T04:52:26.195Z,79.40
2019-02-06T04:53:26.182Z,72.40
2019-02-06T04:54:26.177Z,80.40
2019-02-06T04:55:26.187Z,74.90
2019-02-06T04:56:26.150Z,77.10
2019-02-06T04:57:26.136Z,77.00
2019-02-06T04:58:26.139Z,76.50
2019-02-06T04:59:26.140Z,75.50
2019-02-06T05:00:26.123Z,77.00
2019-02-06T05:01:26.105Z,76.60
2019-02-06T05:02:26.098Z,79.20
2019-02-06T05:03:26.137Z,80.20
2019-02-06T05:04:26.089Z,78.90
2019-02-06T05:05:26.078Z,77.60
2019-02-06T05:06:26.048Z,80.10
2019-02-06T05:07:26.044Z,82.50
2019-02-06T05:08:26.042Z,83.40
2019-02-06T05:09:26.008Z,81.50
2019-02-06T05:10:26.004Z,80.30
2019-02-06T05:11:26.011Z,80.40
2019-02-06T05:12:25.988Z,79.10
2019-02-06T05:13:25.977Z,78.10
2019-02-06T05:14:25.984Z,80.70
2019-02-06T05:15:25.993Z,77.60
2019-02-06T05:16:25.949Z,78.60
2019-02-06T05:17:25.933Z,80.30
2019-02-06T05:18:25.928Z,84.50
2019-02-06T05:19:25.914Z,83.20
2019-02-06T05:20:25.895Z,83.10
2019-02-06T05:21:25.910Z,83.60
2019-02-06T05:22:25.870Z,79.90
2019-02-06T05:23:25.879Z,83.70
2019-02-06T05:24:25.947Z,83.10
2019-02-06T05:25:26.140Z,81.70
2019-02-06T05:26:25.834Z,79.50
2019-02-06T05:27:25.847Z,81.20
2019-02-06T05:28:25.871Z,80.20
2019-02-06T05:29:25.823Z,79.30
2019-02-06T05:30:25.955Z,78.10
2019-02-06T05:31:25.826Z,80.00
2019-02-06T05:32:25.794Z,78.30
2019-02-06T05:33:25.775Z,80.60
2019-02-06T05:34:25.750Z,77.90
2019-02-06T05:35:25.724Z,79.80
2019-02-06T05:36:25.848Z,78.20
2019-02-06T05:37:32.064Z,77.20
2019-02-06T05:38:26.854Z,77.90
2019-02-06T05:39:25.737Z,77.50
2019-02-06T05:40:25.719Z,76.00
2019-02-06T05:41:25.718Z,72.00
2019-02-06T05:42:25.663Z,75.70
2019-02-06T05:43:25.661Z,77.80
2019-02-06T05:44:25.694Z,75.90
2019-02-06T05:45:25.620Z,78.80
2019-02-06T05:46:25.632Z,74.10
2019-02-06T05:47:25.613Z,73.10
2019-02-06T05:48:25.592Z,76.00
2019-02-06T05:49:25.604Z,77.00
2019-02-06T05:50:25.602Z,78.40
2019-02-06T05:51:25.554Z,77.40
2019-02-06T05:52:25.579Z,75.90
2019-02-06T05:53:25.575Z,78.20
2019-02-06T05:54:25.570Z,71.90
2019-02-06T05:55:25.606Z,71.50
2019-02-06T05:56:25.560Z,79.00
2019-02-06T05:57:25.495Z,73.90
2019-02-06T05:58:25.483Z,73.00
2019-02-06T05:59:25.485Z,78.20
2019-02-06T06:00:25.467Z,70.10
2019-02-06T06:01:25.458Z,70.60
2019-02-06T06:02:25.432Z,72.20
2019-02-06T06:03:25.480Z,70.60
2019-02-06T06:04:25.451Z,69.90
2019-02-06T06:05:25.399Z,65.30
2019-02-06T06:06:25.417Z,71.60
2019-02-06T06:07:25.392Z,70.90
2019-02-06T06:08:25.366Z,69.10
2019-02-06T06:09:25.374Z,63.80
2019-02-06T06:10:25.345Z,67.60
2019-02-06T06:11:25.349Z,70.70
2019-02-06T06:12:25.358Z,67.80
2019-02-06T06:13:25.327Z,66.20
2019-02-06T06:14:25.309Z,67.00
2019-02-06T06:15:25.337Z,66.40
2019-02-06T06:16:25.312Z,67.00
2019-02-06T06:17:25.276Z,67.60
2019-02-06T06:18:25.264Z,67.10
2019-02-06T06:19:25.269Z,65.90
2019-02-06T06:20:25.242Z,69.70
2019-02-06T06:21:25.224Z,68.90
2019-02-06T06:22:25.872Z,66.80
2019-02-06T06:23:25.203Z,63.50
2019-02-06T06:24:25.204Z,67.70
2019-02-06T06:25:25.206Z,67.20
2019-02-06T06:26:25.173Z,65.40
2019-02-06T06:27:25.166Z,65.50
2019-02-06T06:28:25.223Z,62.90
2019-02-06T06:29:25.153Z,67.40
2019-02-06T06:30:25.145Z,66.70
2019-02-06T06:31:25.124Z,67.80
2019-02-06T06:32:25.135Z,64.50
2019-02-06T06:33:25.143Z,63.10
2019-02-06T06:34:25.099Z,61.20
2019-02-06T06:35:25.108Z,62.90
2019-02-06T06:36:25.120Z,60.70
2019-02-06T06:37:25.133Z,63.00
2019-02-06T06:38:25.146Z,63.60
2019-02-06T06:39:25.296Z,62.00
2019-02-06T06:40:25.121Z,63.90
2019-02-06T06:41:25.011Z,63.60
2019-02-06T06:42:25.004Z,60.90
2019-02-06T06:43:25.000Z,63.80
2019-02-06T06:44:25.040Z,63.80
2019-02-06T06:45:24.975Z,62.00
2019-02-06T06:46:24.967Z,63.80
2019-02-06T06:47:24.950Z,62.30
2019-02-06T06:48:24.953Z,60.10
2019-02-06T06:49:24.928Z,61.20
2019-02-06T06:50:24.940Z,61.30
2019-02-06T06:51:24.909Z,58.20
2019-02-06T06:52:24.915Z,59.10
2019-02-06T06:53:24.905Z,61.30
2019-02-06T06:54:24.868Z,60.40
2019-02-06T06:55:24.906Z,61.80
2019-02-06T06:56:24.863Z,61.80
2019-02-06T06:57:24.859Z,59.40
2019-02-06T06:58:24.854Z,58.30
2019-02-06T06:59:24.826Z,60.10
2019-02-06T07:00:24.819Z,61.30
2019-02-06T07:01:24.817Z,60.00
2019-02-06T07:02:24.788Z,58.10
2019-02-06T07:03:24.790Z,56.70
2019-02-06T07:04:24.765Z,56.40
2019-02-06T07:05:24.751Z,57.50
2019-02-06T07:06:24.739Z,57.60
2019-02-06T07:07:24.757Z,62.50
2019-02-06T07:08:24.721Z,58.30
2019-02-06T07:09:24.718Z,61.30
2019-02-06T07:10:24.704Z,60.30
2019-02-06T07:11:24.705Z,59.20
2019-02-06T07:12:24.740Z,60.50
2019-02-06T07:13:24.709Z,59.00
2019-02-06T07:14:24.665Z,57.20
2019-02-06T07:15:24.643Z,58.00
2019-02-06T07:16:24.637Z,56.50
2019-02-06T07:17:24.709Z,57.70
2019-02-06T07:18:24.642Z,55.60
2019-02-06T07:19:24.626Z,51.60
2019-02-06T07:20:24.677Z,51.00
2019-02-06T07:21:24.601Z,53.30
2019-02-06T07:22:24.577Z,56.40
2019-02-06T07:23:24.611Z,54.90
2019-02-06T07:24:24.577Z,51.30
2019-02-06T07:25:24.598Z,49.20
2019-02-06T07:26:24.540Z,49.50
2019-02-06T07:27:24.524Z,47.60
2019-02-06T07:28:24.550Z,49.50
2019-02-06T07:29:24.580Z,48.80
2019-02-06T07:30:24.490Z,50.40
2019-02-06T07:31:24.507Z,53.60
2019-02-06T07:32:24.504Z,54.10
2019-02-06T07:33:24.465Z,55.20
2019-02-06T07:34:24.582Z,55.90
2019-02-06T07:35:24.433Z,51.90
2019-02-06T07:36:24.441Z,51.20
2019-02-06T07:37:24.424Z,52.70
2019-02-06T07:38:24.676Z,51.50
2019-02-06T07:39:24.410Z,47.40
2019-02-06T07:40:24.537Z,48.70
2019-02-06T07:41:24.391Z,45.20
2019-02-06T07:42:24.378Z,46.80
2019-02-06T07:43:24.518Z,44.60
2019-02-06T07:44:24.919Z,47.40
2019-02-06T07:45:24.345Z,45.60
2019-02-06T07:46:24.321Z,42.80
2019-02-06T07:47:24.319Z,41.80
2019-02-06T07:48:24.309Z,46.20
2019-02-06T07:49:24.287Z,41.90
2019-02-06T07:50:24.343Z,42.70
2019-02-06T07:51:24.318Z,40.20
2019-02-06T07:52:24.259Z,41.90
2019-02-06T07:53:24.257Z,40.20
2019-02-06T07:54:24.235Z,40.00
2019-02-06T07:55:24.230Z,39.00
2019-02-06T07:56:24.238Z,42.90
2019-02-06T07:57:24.212Z,41.10
2019-02-06T07:58:24.193Z,44.30
2019-02-06T07:59:24.186Z,38.60
2019-02-06T08:00:24.200Z,39.70
2019-02-06T08:01:24.200Z,39.90
2019-02-06T08:02:24.167Z,37.70
2019-02-06T08:03:24.173Z,36.70
2019-02-06T08:04:24.132Z,36.10
2019-02-06T08:05:24.127Z,35.80
2019-02-06T08:06:24.154Z,37.80
2019-02-06T08:07:24.166Z,37.50
2019-02-06T08:08:35.271Z,36.40
2019-02-06T08:09:25.102Z,37.10
2019-02-06T08:10:24.064Z,37.30
2019-02-06T08:11:24.085Z,37.90
2019-02-06T08:12:24.090Z,39.70
2019-02-06T08:13:24.045Z,40.20
2019-02-06T08:14:24.041Z,40.60
2019-02-06T08:15:24.020Z,38.30
2019-02-06T08:16:24.003Z,38.40
2019-02-06T08:17:24.003Z,39.00
2019-02-06T08:18:24.112Z,39.60
2019-02-06T08:19:23.975Z,40.90
2019-02-06T08:20:24.001Z,38.90
2019-02-06T08:21:23.977Z,35.30
2019-02-06T08:22:23.938Z,34.30
2019-02-06T08:23:23.958Z,36.20
2019-02-06T08:24:23.926Z,35.40
2019-02-06T08:25:23.935Z,33.10
2019-02-06T08:26:23.918Z,32.20
2019-02-06T08:27:26.317Z,32.00
2019-02-06T08:28:23.880Z,33.50
2019-02-06T08:29:23.880Z,30.90
2019-02-06T08:30:23.892Z,33.10
2019-02-06T08:31:23.875Z,34.30
2019-02-06T08:32:23.851Z,33.40
2019-02-06T08:33:23.853Z,35.60
2019-02-06T08:34:23.844Z,34.20
2019-02-06T08:35:23.803Z,34.40
2019-02-06T08:36:23.798Z,31.40
2019-02-06T08:37:23.839Z,32.30
2019-02-06T08:38:23.774Z,33.00
2019-02-06T08:39:23.766Z,32.00
2019-02-06T08:40:23.796Z,32.10
2019-02-06T08:41:23.771Z,32.90
2019-02-06T08:42:23.744Z,34.50
2019-02-06T08:43:23.736Z,31.00
2019-02-06T08:44:23.765Z,31.30
2019-02-06T08:45:23.698Z,30.40
2019-02-06T08:46:23.697Z,32.80
2019-02-06T08:47:23.687Z,32.50
2019-02-06T08:48:23.679Z,28.90
2019-02-06T08:49:23.707Z,31.00
2019-02-06T08:50:23.681Z,30.30
2019-02-06T08:51:23.640Z,28.10
2019-02-06T08:52:23.636Z,32.00
2019-02-06T08:53:23.636Z,29.40
2019-02-06T08:54:23.621Z,29.40
2019-02-06T08:55:23.628Z,33.20
2019-02-06T08:56:23.583Z,27.60
2019-02-06T08:57:23.574Z,29.90
2019-02-06T08:58:23.568Z,28.50
2019-02-06T08:59:23.572Z,28.90
2019-02-06T09:00:23.555Z,29.00
2019-02-06T09:01:23.565Z,28.30
2019-02-06T09:02:23.528Z,29.60
2019-02-06T09:03:23.522Z,28.10
2019-02-06T09:04:23.502Z,29.70
2019-02-06T09:05:23.526Z,28.90
2019-02-06T09:06:23.488Z,29.50
2019-02-06T09:07:23.487Z,28.30
2019-02-06T09:08:23.466Z,30.20
2019-02-06T09:09:23.456Z,28.80
2019-02-06T09:10:23.468Z,28.60
2019-02-06T09:11:23.433Z,29.20
2019-02-06T09:12:23.443Z,30.40
2019-02-06T09:13:23.412Z,29.80
2019-02-06T09:14:23.418Z,27.60
2019-02-06T09:15:23.397Z,28.70
2019-02-06T09:16:23.390Z,28.80
2019-02-06T09:17:23.395Z,28.90
2019-02-06T09:18:23.363Z,28.80
2019-02-06T09:19:23.351Z,27.50
2019-02-06T09:20:23.342Z,27.30
2019-02-06T09:21:23.322Z,27.20
2019-02-06T09:22:23.327Z,28.50
2019-02-06T09:23:23.343Z,28.30
2019-02-06T09:24:23.303Z,26.80
2019-02-06T09:25:23.286Z,29.50
2019-02-06T09:26:23.293Z,28.30
2019-02-06T09:27:23.258Z,26.70
2019-02-06T09:28:23.345Z,27.90
2019-02-06T09:29:23.272Z,27.00
2019-02-06T09:30:23.244Z,29.30
2019-02-06T09:31:23.223Z,27.10
2019-02-06T09:32:23.208Z,28.20
2019-02-06T09:33:23.197Z,27.40
2019-02-06T09:34:23.220Z,30.10
2019-02-06T09:35:23.184Z,29.00
2019-02-06T09:36:23.181Z,27.00
2019-02-06T09:37:23.160Z,27.70
2019-02-06T09:38:23.146Z,28.10
2019-02-06T09:39:23.174Z,27.30
2019-02-06T09:40:23.137Z,24.30
2019-02-06T09:41:23.116Z,25.10
2019-02-06T09:42:23.102Z,28.00
2019-02-06T09:43:23.167Z,25.40
2019-02-06T09:44:23.301Z,25.20
2019-02-06T09:45:23.063Z,25.90
2019-02-06T09:46:23.073Z,25.90
2019-02-06T09:47:23.054Z,24.40
2019-02-06T09:48:23.034Z,26.00
2019-02-06T09:49:23.062Z,25.80
2019-02-06T09:50:23.016Z,26.60
2019-02-06T09:51:23.014Z,25.30
2019-02-06T09:52:26.589Z,26.60
2019-02-06T09:53:23.993Z,26.40
2019-02-06T09:54:23.001Z,26.30
2019-02-06T09:55:22.988Z,26.10
2019-02-06T09:56:22.961Z,28.20
2019-02-06T09:57:22.946Z,28.10
2019-02-06T09:58:22.948Z,23.40
2019-02-06T09:59:22.938Z,25.20
2019-02-06T10:00:22.944Z,25.00
2019-02-06T10:01:22.900Z,25.80
2019-02-06T10:02:22.888Z,21.80
2019-02-06T10:03:22.884Z,25.50
2019-02-06T10:04:22.870Z,22.50
2019-02-06T10:05:22.878Z,22.20
2019-02-06T10:06:22.851Z,22.50
2019-02-06T10:07:22.865Z,21.60
2019-02-06T10:08:22.830Z,22.40
2019-02-06T10:09:23.297Z,22.60
2019-02-06T10:10:22.809Z,20.90
2019-02-06T10:11:22.840Z,25.10
2019-02-06T10:12:22.786Z,22.50
2019-02-06T10:13:22.781Z,21.80
2019-02-06T10:14:22.767Z,21.60
2019-02-06T10:15:22.766Z,20.40
2019-02-06T10:16:22.741Z,22.60
2019-02-06T10:17:22.751Z,23.60
2019-02-06T10:18:22.725Z,22.80
2019-02-06T10:19:22.710Z,24.60
2019-02-06T10:20:22.724Z,23.00
2019-02-06T10:21:22.690Z,23.80
2019-02-06T10:22:22.692Z,24.50
2019-02-06T10:23:22.669Z,21.30
2019-02-06T10:24:22.678Z,21.00
2019-02-06T10:25:22.739Z,23.00
2019-02-06T10:26:22.659Z,24.30
2019-02-06T10:27:24.033Z,22.60
2019-02-06T10:28:24.225Z,24.70
2019-02-06T10:29:22.604Z,25.10
2019-02-06T10:30:22.623Z,23.10
2019-02-06T10:31:22.581Z,21.10
2019-02-06T10:32:22.600Z,21.90
2019-02-06T10:33:22.571Z,22.90
2019-02-06T10:34:23.424Z,21.00
2019-02-06T10:35:22.538Z,21.50
2019-02-06T10:36:22.526Z,23.00
2019-02-06T10:37:22.523Z,22.40
2019-02-06T10:38:22.530Z,21.80
2019-02-06T10:39:33.982Z,20.20
2019-02-06T10:40:23.521Z,21.90
2019-02-06T10:41:22.477Z,22.00
2019-02-06T10:42:22.465Z,19.80
2019-02-06T10:43:31.561Z,20.40
2019-02-06T10:44:23.470Z,20.00
2019-02-06T10:45:22.479Z,20.20
2019-02-06T10:46:22.415Z,23.60
2019-02-06T10:47:22.444Z,20.40
2019-02-06T10:48:22.397Z,19.20
2019-02-06T10:49:22.418Z,23.00
2019-02-06T10:50:22.377Z,21.70
2019-02-06T10:51:22.374Z,20.50
2019-02-06T10:52:22.357Z,22.40
2019-02-06T10:53:22.344Z,19.80
2019-02-06T10:54:22.335Z,21.50
2019-02-06T10:55:22.346Z,22.30
2019-02-06T10:56:22.322Z,22.10
2019-02-06T10:57:22.467Z,20.10
2019-02-06T10:58:22.290Z,20.30
2019-02-06T10:59:22.334Z,19.80
2019-02-06T11:00:22.315Z,21.30
2019-02-06T11:01:22.268Z,23.00
2019-02-06T11:02:22.296Z,22.30
2019-02-06T11:03:22.237Z,23.40
2019-02-06T11:04:22.246Z,20.80
2019-02-06T11:05:22.233Z,22.20
2019-02-06T11:06:22.345Z,23.30
2019-02-06T11:07:22.209Z,21.80
2019-02-06T11:08:22.209Z,23.00
2019-02-06T11:09:22.178Z,22.10
2019-02-06T11:10:22.197Z,21.60
2019-02-06T11:11:22.178Z,20.70
2019-02-06T11:12:24.582Z,22.60
2019-02-06T11:13:22.159Z,22.10
2019-02-06T11:14:22.132Z,22.20
2019-02-06T11:15:22.137Z,23.10
2019-02-06T11:16:22.103Z,25.30
2019-02-06T11:17:22.116Z,23.30
2019-02-06T11:18:22.085Z,25.50
2019-02-06T11:19:22.071Z,23.40
2019-02-06T11:20:22.067Z,23.90
2019-02-06T11:21:22.066Z,23.20
2019-02-06T11:22:22.085Z,23.80
2019-02-06T11:23:22.054Z,22.40
2019-02-06T11:24:22.025Z,22.30
2019-02-06T11:25:22.004Z,22.50
2019-02-06T11:26:22.008Z,23.10
2019-02-06T11:27:21.995Z,25.00
2019-02-06T11:28:22.032Z,25.70
2019-02-06T11:29:21.982Z,22.10
2019-02-06T11:30:21.962Z,23.40
2019-02-06T11:31:21.948Z,24.30
2019-02-06T11:32:21.992Z,23.80
2019-02-06T11:33:21.978Z,24.30
2019-02-06T11:34:21.913Z,22.50
2019-02-06T11:35:21.928Z,24.50
2019-02-06T11:36:24.166Z,27.30
2019-02-06T11:37:21.877Z,25.00
2019-02-06T11:38:21.860Z,24.80
2019-02-06T11:39:21.907Z,25.70
2019-02-06T11:40:21.848Z,25.50
2019-02-06T11:41:21.878Z,26.70
2019-02-06T11:42:21.841Z,27.40
2019-02-06T11:43:21.829Z,25.30
2019-02-06T11:44:21.826Z,25.40
2019-02-06T11:45:21.853Z,27.20
2019-02-06T11:46:21.839Z,24.90
2019-02-06T11:47:21.778Z,25.10
2019-02-06T11:48:21.771Z,24.90
2019-02-06T11:49:21.762Z,24.00
2019-02-06T11:50:21.771Z,25.70
2019-02-06T11:51:24.377Z,25.10
2019-02-06T11:52:21.723Z,25.00
2019-02-06T11:53:21.719Z,27.40
2019-02-06T11:54:21.745Z,27.70
2019-02-06T11:55:21.710Z,24.50
2019-02-06T11:56:21.680Z,25.40
2019-02-06T11:57:24.101Z,22.70
2019-02-06T11:58:21.651Z,23.40
2019-02-06T11:59:21.677Z,23.70
2019-02-06T12:00:21.676Z,23.30
2019-02-06T12:01:21.633Z,24.20
2019-02-06T12:02:21.613Z,24.80
2019-02-06T12:03:22.394Z,27.10
2019-02-06T12:04:21.613Z,27.90
2019-02-06T12:05:21.641Z,30.80
2019-02-06T12:06:21.610Z,25.70
2019-02-06T12:07:21.589Z,30.90
2019-02-06T12:08:21.569Z,28.50
2019-02-06T12:09:21.534Z,29.50
2019-02-06T12:10:21.527Z,30.40
2019-02-06T12:11:21.530Z,32.60
2019-02-06T12:12:21.704Z,28.00
2019-02-06T12:13:21.501Z,30.40
2019-02-06T12:14:21.483Z,28.90
2019-02-06T12:15:21.469Z,29.50
2019-02-06T12:16:21.575Z,30.10
2019-02-06T12:17:21.481Z,32.00
2019-02-06T12:18:21.458Z,36.20
2019-02-06T12:19:21.459Z,31.10
2019-02-06T12:20:21.436Z,30.90
2019-02-06T12:21:21.445Z,30.70
2019-02-06T12:22:21.423Z,31.80
2019-02-06T12:23:31.779Z,32.80
2019-02-06T12:24:22.395Z,35.80
2019-02-06T12:25:21.436Z,37.30
2019-02-06T12:26:21.375Z,37.90
2019-02-06T12:27:21.406Z,37.70
2019-02-06T12:28:21.347Z,36.70
2019-02-06T12:29:21.329Z,35.90
2019-02-06T12:30:21.315Z,39.80
2019-02-06T12:31:21.313Z,38.80
2019-02-06T12:32:21.364Z,40.40
2019-02-06T12:33:21.288Z,37.90
2019-02-06T12:34:21.345Z,41.20
2019-02-06T12:35:21.282Z,45.70
2019-02-06T12:36:21.269Z,44.70
2019-02-06T12:37:21.277Z,39.60
2019-02-06T12:38:21.256Z,40.70
2019-02-06T12:39:22.752Z,43.40
2019-02-06T12:40:22.075Z,41.50
2019-02-06T12:41:21.195Z,40.60
2019-02-06T12:42:21.200Z,46.20
2019-02-06T12:43:21.214Z,41.30
2019-02-06T12:44:21.208Z,39.00
2019-02-06T12:45:21.159Z,39.30
2019-02-06T12:46:21.150Z,41.00
2019-02-06T12:47:21.130Z,46.60
2019-02-06T12:48:21.206Z,42.10
2019-02-06T12:49:21.108Z,42.90
2019-02-06T12:50:21.099Z,38.00
2019-02-06T12:51:21.133Z,41.00
2019-02-06T12:52:21.093Z,43.70